Provisional Data: Moose Creek near Plymptonville, PA


Please select a monitoring station.
Please select start date.
Please select start date.

Toggle Unit: C/F Toggle Unit: C/F
Sample Time Temperature (C) Temperature (F) Specific Conductivity (mS/cm) pH   Turbidity (NTU+) DO (mg/L)
3/24/2021 2:15:00 PM 7.15 44.87 0.073 6.23 4.04 11.5
3/24/2021 2:30:00 PM 7.2 44.96 0.073 6.23 4.17 11.49
3/24/2021 2:45:00 PM 7.27 45.086 0.073 6.23 4.08 11.47
3/24/2021 3:00:00 PM 7.32 45.176 0.073 6.23 4.12 11.45
3/24/2021 3:15:00 PM 7.35 45.23 0.073 6.23 4.13 11.44
3/24/2021 3:30:00 PM 7.37 45.266 0.073 6.23 4.08 11.43
3/24/2021 3:45:00 PM 7.4 45.32 0.073 6.23 3.99 11.42
3/24/2021 4:00:00 PM 7.44 45.392 0.073 6.22 4 11.41
3/24/2021 4:15:00 PM 7.48 45.464 0.073 6.23 4.04 11.4
3/24/2021 4:30:00 PM 7.5 45.5 0.073 6.22 4.04 11.39
3/24/2021 4:45:00 PM 7.5 45.5 0.072 6.23 4.05 11.39
3/24/2021 5:00:00 PM 7.49 45.482 0.072 6.22 4.05 11.39
3/24/2021 5:15:00 PM 7.47 45.446 0.072 6.22 4.12 11.4
3/24/2021 5:30:00 PM 7.45 45.41 0.072 6.22 4.04 11.39
3/24/2021 5:45:00 PM 7.43 45.374 0.072 6.22 4.11 11.4
3/24/2021 6:00:00 PM 7.4 45.32 0.072 6.22 4.09 11.41
3/24/2021 6:15:00 PM 7.37 45.266 0.072 6.22 4.04 11.42
3/24/2021 6:30:00 PM 7.34 45.212 0.072 6.22 4.04 11.42
3/24/2021 6:45:00 PM 7.32 45.176 0.072 6.21 4.12 11.43
3/24/2021 7:00:00 PM 7.29 45.122 0.072 6.21 4.1 11.44
3/25/2021 8:00:00 AM -99999.99 -179968 -99999.99 -99999.99 -99999.99 -99999.99
3/25/2021 8:15:00 AM 6.95 44.51 0.073 6.21 4.1 11.59
3/25/2021 8:30:00 AM 7 44.6 0.073 6.21 4.09 11.57
3/25/2021 8:45:00 AM 7.08 44.744 0.073 6.22 4.08 11.56
3/25/2021 9:00:00 AM 7.17 44.906 0.073 6.22 4.08 11.53
3/25/2021 9:30:00 AM 7.37 45.266 0.073 6.23 4.05 11.47
3/25/2021 9:45:00 AM 7.49 45.482 0.073 6.22 4.09 11.44
3/25/2021 10:00:00 AM 7.62 45.716 0.073 6.23 4.11 11.4
3/25/2021 10:15:00 AM 7.75 45.95 0.073 6.23 4.12 11.37
3/25/2021 10:30:00 AM 7.91 46.238 0.073 6.23 4.09 11.32
3/25/2021 10:45:00 AM 8.03 46.454 0.073 6.23 4.03 11.28
3/25/2021 11:00:00 AM 8.16 46.688 0.073 6.23 4.1 11.25
3/30/2021 9:45:00 AM 6.23 43.214 0.106 6.5 4.13 11.84
3/30/2021 10:00:00 AM 6.39 43.502 0.105 6.51 4.14 11.81
3/30/2021 10:15:00 AM 6.56 43.808 0.105 6.51 4.05 11.76
3/30/2021 10:30:00 AM 6.74 44.132 0.105 6.51 4.04 11.7
3/30/2021 10:45:00 AM 6.91 44.438 0.105 6.51 4.06 11.64
3/30/2021 11:00:00 AM 7.08 44.744 0.104 6.51 4.09 11.59
3/30/2021 11:15:00 AM -99999.99 -179968 -99999.99 -99999.99 -99999.99 -99999.99
4/2/2021 3:30:00 PM 5.8 42.44 0.104 6.5 4.54 11.97
4/2/2021 3:45:00 PM 5.75 42.35 0.104 6.5 4.52 11.99
4/2/2021 4:00:00 PM 5.69 42.242 0.104 6.5 4.55 12
4/2/2021 4:15:00 PM 5.61 42.098 0.104 6.5 4.57 12.03
4/2/2021 4:30:00 PM 5.55 41.99 0.103 6.49 4.58 12.05
4/2/2021 4:45:00 PM 5.47 41.846 0.103 6.49 4.51 12.07
4/2/2021 5:00:00 PM 5.38 41.684 0.103 6.49 4.5 12.1
4/2/2021 5:15:00 PM 5.3 41.54 0.103 6.49 4.59 12.13
4/2/2021 5:30:00 PM 5.21 41.378 0.103 6.49 4.74 12.16
4/2/2021 5:45:00 PM 5.15 41.27 0.103 6.49 4.64 12.19
4/2/2021 6:00:00 PM 5.1 41.18 0.103 6.48 4.54 12.2
4/2/2021 6:15:00 PM 5.06 41.108 0.103 6.48 4.52 12.21
4/2/2021 6:30:00 PM 5.02 41.036 0.103 6.48 4.52 12.23
4/2/2021 6:45:00 PM 4.97 40.946 0.102 6.48 4.47 12.25
4/2/2021 7:00:00 PM 4.92 40.856 0.102 6.47 4.57 12.26
4/6/2021 3:00:00 PM -99999.99 -179968 -99999.99 -99999.99 -99999.99 -99999.99
4/6/2021 3:15:00 PM -99999.99 -179968 -99999.99 -99999.99 -99999.99 -99999.99
4/6/2021 3:30:00 PM -99999.99 -179968 -99999.99 -99999.99 -99999.99 -99999.99
4/6/2021 3:45:00 PM -99999.99 -179968 -99999.99 -99999.99 -99999.99 -99999.99
4/6/2021 4:00:00 PM -99999.99 -179968 -99999.99 -99999.99 -99999.99 -99999.99
4/6/2021 4:15:00 PM -99999.99 -179968 -99999.99 -99999.99 -99999.99 -99999.99
4/6/2021 4:30:00 PM -99999.99 -179968 -99999.99 -99999.99 -99999.99 -99999.99
4/6/2021 4:45:00 PM -99999.99 -179968 -99999.99 -99999.99 -99999.99 -99999.99
4/6/2021 5:00:00 PM -99999.99 -179968 -99999.99 -99999.99 -99999.99 -99999.99
4/6/2021 5:15:00 PM -99999.99 -179968 -99999.99 -99999.99 -99999.99 -99999.99
4/6/2021 5:30:00 PM -99999.99 -179968 -99999.99 -99999.99 -99999.99 -99999.99
4/6/2021 5:45:00 PM -99999.99 -179968 -99999.99 -99999.99 -99999.99 -99999.99
4/6/2021 6:00:00 PM -99999.99 -179968 -99999.99 -99999.99 -99999.99 -99999.99
4/6/2021 6:15:00 PM -99999.99 -179968 -99999.99 -99999.99 -99999.99 -99999.99
4/6/2021 6:30:00 PM -99999.99 -179968 -99999.99 -99999.99 -99999.99 -99999.99
4/6/2021 6:45:00 PM -99999.99 -179968 -99999.99 -99999.99 -99999.99 -99999.99
4/6/2021 7:00:00 PM -99999.99 -179968 -99999.99 -99999.99 -99999.99 -99999.99
4/6/2021 7:15:00 PM -99999.99 -179968 -99999.99 -99999.99 -99999.99 -99999.99
4/6/2021 7:30:00 PM -99999.99 -179968 -99999.99 -99999.99 -99999.99 -99999.99
4/6/2021 7:45:00 PM -99999.99 -179968 -99999.99 -99999.99 -99999.99 -99999.99
4/6/2021 8:00:00 PM -99999.99 -179968 -99999.99 -99999.99 -99999.99 -99999.99
4/6/2021 8:15:00 PM -99999.99 -179968 -99999.99 -99999.99 -99999.99 -99999.99
4/6/2021 8:30:00 PM -99999.99 -179968 -99999.99 -99999.99 -99999.99 -99999.99
4/6/2021 8:45:00 PM -99999.99 -179968 -99999.99 -99999.99 -99999.99 -99999.99
4/6/2021 9:00:00 PM -99999.99 -179968 -99999.99 -99999.99 -99999.99 -99999.99
4/6/2021 9:15:00 PM -99999.99 -179968 -99999.99 -99999.99 -99999.99 -99999.99
4/6/2021 9:30:00 PM -99999.99 -179968 -99999.99 -99999.99 -99999.99 -99999.99
4/6/2021 9:45:00 PM -99999.99 -179968 -99999.99 -99999.99 -99999.99 -99999.99
4/6/2021 10:00:00 PM -99999.99 -179968 -99999.99 -99999.99 -99999.99 -99999.99
4/6/2021 10:15:00 PM -99999.99 -179968 -99999.99 -99999.99 -99999.99 -99999.99
4/6/2021 10:30:00 PM -99999.99 -179968 -99999.99 -99999.99 -99999.99 -99999.99
4/6/2021 10:45:00 PM -99999.99 -179968 -99999.99 -99999.99 -99999.99 -99999.99
4/6/2021 11:00:00 PM -99999.99 -179968 -99999.99 -99999.99 -99999.99 -99999.99
4/6/2021 11:15:00 PM -99999.99 -179968 -99999.99 -99999.99 -99999.99 -99999.99
4/6/2021 11:30:00 PM -99999.99 -179968 -99999.99 -99999.99 -99999.99 -99999.99
4/6/2021 11:45:00 PM -99999.99 -179968 -99999.99 -99999.99 -99999.99 -99999.99
4/7/2021 12:00:00 AM -99999.99 -179968 -99999.99 -99999.99 -99999.99 -99999.99
4/7/2021 12:15:00 AM -99999.99 -179968 -99999.99 -99999.99 -99999.99 -99999.99
4/7/2021 12:30:00 AM -99999.99 -179968 -99999.99 -99999.99 -99999.99 -99999.99
4/7/2021 12:45:00 AM -99999.99 -179968 -99999.99 -99999.99 -99999.99 -99999.99
4/7/2021 1:00:00 AM -99999.99 -179968 -99999.99 -99999.99 -99999.99 -99999.99
4/7/2021 1:15:00 AM -99999.99 -179968 -99999.99 -99999.99 -99999.99 -99999.99
4/7/2021 1:30:00 AM -99999.99 -179968 -99999.99 -99999.99 -99999.99 -99999.99
4/7/2021 1:45:00 AM -99999.99 -179968 -99999.99 -99999.99 -99999.99 -99999.99
4/7/2021 2:00:00 AM -99999.99 -179968 -99999.99 -99999.99 -99999.99 -99999.99
4/7/2021 2:15:00 AM -99999.99 -179968 -99999.99 -99999.99 -99999.99 -99999.99
4/7/2021 2:30:00 AM -99999.99 -179968 -99999.99 -99999.99 -99999.99 -99999.99
4/7/2021 2:45:00 AM -99999.99 -179968 -99999.99 -99999.99 -99999.99 -99999.99
4/7/2021 3:00:00 AM -99999.99 -179968 -99999.99 -99999.99 -99999.99 -99999.99
4/7/2021 3:15:00 AM -99999.99 -179968 -99999.99 -99999.99 -99999.99 -99999.99
4/7/2021 3:30:00 AM -99999.99 -179968 -99999.99 -99999.99 -99999.99 -99999.99
4/7/2021 3:45:00 AM -99999.99 -179968 -99999.99 -99999.99 -99999.99 -99999.99
4/7/2021 4:00:00 AM -99999.99 -179968 -99999.99 -99999.99 -99999.99 -99999.99
4/7/2021 4:15:00 AM -99999.99 -179968 -99999.99 -99999.99 -99999.99 -99999.99
4/7/2021 4:30:00 AM -99999.99 -179968 -99999.99 -99999.99 -99999.99 -99999.99
4/7/2021 4:45:00 AM -99999.99 -179968 -99999.99 -99999.99 -99999.99 -99999.99
4/7/2021 5:00:00 AM -99999.99 -179968 -99999.99 -99999.99 -99999.99 -99999.99
4/7/2021 5:15:00 AM -99999.99 -179968 -99999.99 -99999.99 -99999.99 -99999.99
4/7/2021 5:30:00 AM -99999.99 -179968 -99999.99 -99999.99 -99999.99 -99999.99
4/7/2021 5:45:00 AM -99999.99 -179968 -99999.99 -99999.99 -99999.99 -99999.99
4/7/2021 6:00:00 AM -99999.99 -179968 -99999.99 -99999.99 -99999.99 -99999.99
4/7/2021 6:15:00 AM -99999.99 -179968 -99999.99 -99999.99 -99999.99 -99999.99
4/7/2021 6:30:00 AM -99999.99 -179968 -99999.99 -99999.99 -99999.99 -99999.99
4/7/2021 6:45:00 AM -99999.99 -179968 -99999.99 -99999.99 -99999.99 -99999.99
4/7/2021 7:00:00 AM -99999.99 -179968 -99999.99 -99999.99 -99999.99 -99999.99
4/7/2021 7:15:00 AM -99999.99 -179968 -99999.99 -99999.99 -99999.99 -99999.99
4/7/2021 7:30:00 AM -99999.99 -179968 -99999.99 -99999.99 -99999.99 -99999.99
4/7/2021 7:45:00 AM -99999.99 -179968 -99999.99 -99999.99 -99999.99 -99999.99
4/7/2021 8:00:00 AM -99999.99 -179968 -99999.99 -99999.99 -99999.99 -99999.99
4/7/2021 8:15:00 AM -99999.99 -179968 -99999.99 -99999.99 -99999.99 -99999.99
4/7/2021 8:30:00 AM -99999.99 -179968 -99999.99 -99999.99 -99999.99 -99999.99
4/7/2021 8:45:00 AM -99999.99 -179968 -99999.99 -99999.99 -99999.99 -99999.99
4/7/2021 9:00:00 AM -99999.99 -179968 -99999.99 -99999.99 -99999.99 -99999.99
4/7/2021 9:15:00 AM -99999.99 -179968 -99999.99 -99999.99 -99999.99 -99999.99
4/7/2021 9:30:00 AM -99999.99 -179968 -99999.99 -99999.99 -99999.99 -99999.99
4/7/2021 9:45:00 AM 8.33 46.994 0.089 6.43 6.4 11.15
4/7/2021 10:00:00 AM 8.53 47.354 0.088 6.43 6.97 11.1
4/7/2021 10:15:00 AM 8.73 47.714 0.088 6.44 6.73 11.04
4/7/2021 10:30:00 AM 8.95 48.11 0.088 6.44 6.64 10.98
4/7/2021 10:45:00 AM 9.18 48.524 0.088 6.44 6.42 10.92
4/7/2021 11:00:00 AM 9.4 48.92 0.088 6.44 6.26 10.86
4/7/2021 11:45:00 AM 9.96 49.928 0.088 6.45 6.43 10.71
4/7/2021 12:00:00 PM 10.11 50.198 0.088 6.45 6.41 10.67
4/7/2021 12:15:00 PM 10.24 50.432 0.088 6.45 6.07 10.63
4/7/2021 12:30:00 PM 10.37 50.666 0.088 6.45 6.17 10.6
4/7/2021 12:45:00 PM 10.47 50.846 0.088 6.45 6.28 10.58
4/7/2021 1:00:00 PM 10.44 50.792 0.088 6.45 6.11 10.58
4/7/2021 1:15:00 PM 10.44 50.792 0.088 6.45 6.01 10.57
4/7/2021 1:30:00 PM 10.44 50.792 0.088 6.45 6.34 10.57
4/7/2021 1:45:00 PM 10.34 50.612 0.088 6.45 6.81 10.59
4/7/2021 2:00:00 PM 10.43 50.774 0.088 6.45 6.41 10.58
4/7/2021 2:15:00 PM 10.5 50.9 0.088 6.46 6.14 10.56
4/7/2021 2:30:00 PM 10.48 50.864 0.088 6.45 6.89 10.55
4/7/2021 2:45:00 PM 10.55 50.99 0.088 6.45 6.34 10.54
4/7/2021 3:00:00 PM 10.58 51.044 0.088 6.46 6.39 10.52
4/7/2021 3:15:00 PM 10.5 50.9 0.088 6.45 6.41 10.53
4/7/2021 3:30:00 PM 10.44 50.792 0.088 6.45 6.42 10.55
4/7/2021 3:45:00 PM 10.38 50.684 0.088 6.45 6.38 10.57
4/7/2021 4:00:00 PM 10.31 50.558 0.088 6.45 6.83 10.59
4/7/2021 4:15:00 PM 10.29 50.522 0.088 6.45 6.96 10.6
4/7/2021 4:30:00 PM 10.28 50.504 0.088 6.45 6.52 10.6
4/7/2021 4:45:00 PM 10.26 50.468 0.088 6.45 6.55 10.6
4/7/2021 5:00:00 PM 10.26 50.468 0.088 6.45 6.57 10.6
4/7/2021 5:15:00 PM 10.22 50.396 0.088 6.44 6.92 10.6
4/7/2021 5:30:00 PM 10.16 50.288 0.089 6.44 6.7 10.62
4/7/2021 5:45:00 PM 10.1 50.18 0.089 6.43 7.1 10.63
4/7/2021 6:00:00 PM 10.03 50.054 0.089 6.43 6.66 10.65
4/7/2021 6:15:00 PM 9.95 49.91 0.089 6.43 6.66 10.67
4/7/2021 6:30:00 PM 9.87 49.766 0.089 6.42 6.84 10.69
4/7/2021 6:45:00 PM 9.8 49.64 0.089 6.42 7 10.71
4/7/2021 7:00:00 PM 9.72 49.496 0.089 6.42 6.63 10.72
4/7/2021 7:15:00 PM 9.65 49.37 0.089 6.42 6.71 10.74
4/7/2021 7:30:00 PM 9.59 49.262 0.089 6.42 6.88 10.75
4/7/2021 7:45:00 PM 9.53 49.154 0.089 6.41 7.1 10.78
4/7/2021 8:00:00 PM 9.49 49.082 0.089 6.42 6.66 10.79
4/7/2021 8:15:00 PM 9.43 48.974 0.089 6.41 6.46 10.81
4/7/2021 8:30:00 PM 9.38 48.884 0.089 6.41 6.75 10.82
4/7/2021 8:45:00 PM 9.34 48.812 0.089 6.41 6.75 10.84
4/7/2021 9:00:00 PM 9.29 48.722 0.089 6.41 6.75 10.85
4/7/2021 9:15:00 PM 9.25 48.65 0.089 6.4 6.75 10.86
4/7/2021 9:30:00 PM 9.2 48.56 0.089 6.4 7.1 10.88
4/7/2021 9:45:00 PM 9.15 48.47 0.089 6.4 7.02 10.89
4/7/2021 10:00:00 PM 9.1 48.38 0.089 6.41 6.55 10.9
4/7/2021 10:15:00 PM 9.05 48.29 0.089 6.41 6.78 10.92
4/7/2021 10:30:00 PM 9.01 48.218 0.089 6.41 6.61 10.92
4/7/2021 10:45:00 PM -99999.99 -179968 -99999.99 -99999.99 -99999.99 -99999.99
4/7/2021 11:00:00 PM -99999.99 -179968 -99999.99 -99999.99 -99999.99 -99999.99
4/7/2021 11:15:00 PM -99999.99 -179968 -99999.99 -99999.99 -99999.99 -99999.99
4/7/2021 11:30:00 PM -99999.99 -179968 -99999.99 -99999.99 -99999.99 -99999.99
4/7/2021 11:45:00 PM -99999.99 -179968 -99999.99 -99999.99 -99999.99 -99999.99
4/8/2021 12:00:00 AM -99999.99 -179968 -99999.99 -99999.99 -99999.99 -99999.99
4/8/2021 12:15:00 AM -99999.99 -179968 -99999.99 -99999.99 -99999.99 -99999.99
4/8/2021 12:30:00 AM -99999.99 -179968 -99999.99 -99999.99 -99999.99 -99999.99
4/8/2021 12:45:00 AM -99999.99 -179968 -99999.99 -99999.99 -99999.99 -99999.99
4/8/2021 1:00:00 AM -99999.99 -179968 -99999.99 -99999.99 -99999.99 -99999.99
4/8/2021 1:15:00 AM -99999.99 -179968 -99999.99 -99999.99 -99999.99 -99999.99
4/8/2021 1:30:00 AM -99999.99 -179968 -99999.99 -99999.99 -99999.99 -99999.99
4/8/2021 1:45:00 AM -99999.99 -179968 -99999.99 -99999.99 -99999.99 -99999.99
4/8/2021 2:00:00 AM -99999.99 -179968 -99999.99 -99999.99 -99999.99 -99999.99
4/8/2021 2:15:00 AM -99999.99 -179968 -99999.99 -99999.99 -99999.99 -99999.99
4/8/2021 2:30:00 AM -99999.99 -179968 -99999.99 -99999.99 -99999.99 -99999.99
4/8/2021 2:45:00 AM -99999.99 -179968 -99999.99 -99999.99 -99999.99 -99999.99
4/8/2021 3:00:00 AM -99999.99 -179968 -99999.99 -99999.99 -99999.99 -99999.99
4/8/2021 3:15:00 AM -99999.99 -179968 -99999.99 -99999.99 -99999.99 -99999.99
4/8/2021 3:30:00 AM -99999.99 -179968 -99999.99 -99999.99 -99999.99 -99999.99
4/8/2021 3:45:00 AM -99999.99 -179968 -99999.99 -99999.99 -99999.99 -99999.99
4/8/2021 4:00:00 AM -99999.99 -179968 -99999.99 -99999.99 -99999.99 -99999.99
4/8/2021 4:15:00 AM -99999.99 -179968 -99999.99 -99999.99 -99999.99 -99999.99
4/8/2021 4:30:00 AM -99999.99 -179968 -99999.99 -99999.99 -99999.99 -99999.99
4/8/2021 4:45:00 AM -99999.99 -179968 -99999.99 -99999.99 -99999.99 -99999.99
4/8/2021 5:00:00 AM -99999.99 -179968 -99999.99 -99999.99 -99999.99 -99999.99
4/8/2021 5:15:00 AM -99999.99 -179968 -99999.99 -99999.99 -99999.99 -99999.99
4/8/2021 5:30:00 AM -99999.99 -179968 -99999.99 -99999.99 -99999.99 -99999.99
4/8/2021 5:45:00 AM -99999.99 -179968 -99999.99 -99999.99 -99999.99 -99999.99
4/8/2021 6:00:00 AM -99999.99 -179968 -99999.99 -99999.99 -99999.99 -99999.99
4/8/2021 6:15:00 AM -99999.99 -179968 -99999.99 -99999.99 -99999.99 -99999.99
4/8/2021 6:30:00 AM -99999.99 -179968 -99999.99 -99999.99 -99999.99 -99999.99
4/8/2021 6:45:00 AM -99999.99 -179968 -99999.99 -99999.99 -99999.99 -99999.99
4/8/2021 7:00:00 AM -99999.99 -179968 -99999.99 -99999.99 -99999.99 -99999.99
4/8/2021 7:15:00 AM -99999.99 -179968 -99999.99 -99999.99 -99999.99 -99999.99
4/8/2021 7:30:00 AM -99999.99 -179968 -99999.99 -99999.99 -99999.99 -99999.99
4/8/2021 7:45:00 AM -99999.99 -179968 -99999.99 -99999.99 -99999.99 -99999.99
4/8/2021 8:00:00 AM -99999.99 -179968 -99999.99 -99999.99 -99999.99 -99999.99
4/8/2021 8:15:00 AM 8.35 47.03 0.089 6.44 6.54 11.14
4/8/2021 8:30:00 AM 8.45 47.21 0.089 6.44 6.73 11.11
4/8/2021 8:45:00 AM 8.57 47.426 0.089 6.44 6.98 11.08
4/8/2021 9:00:00 AM 8.69 47.642 0.089 6.44 6.92 11.05
4/8/2021 9:15:00 AM 8.82 47.876 0.089 6.44 6.91 11.02
4/8/2021 9:30:00 AM 8.96 48.128 0.089 6.44 6.59 10.98
4/8/2021 9:45:00 AM 9.11 48.398 0.089 6.45 6.48 10.94
4/8/2021 10:00:00 AM 9.27 48.686 0.089 6.45 6.91 10.89
4/8/2021 10:15:00 AM 9.42 48.956 0.089 6.45 6.58 10.85
4/8/2021 10:30:00 AM 9.59 49.262 0.089 6.45 6.6 10.81
4/8/2021 10:45:00 AM 9.77 49.586 0.089 6.45 6.72 10.76
4/8/2021 11:00:00 AM 9.95 49.91 0.089 6.45 6.57 10.71
4/8/2021 11:15:00 AM 10.11 50.198 0.089 6.45 7 10.67
4/8/2021 11:30:00 AM 10.28 50.504 0.089 6.45 6.97 10.63
4/8/2021 11:45:00 AM 10.42 50.756 0.089 6.46 6.59 10.58
4/8/2021 12:00:00 PM 10.55 50.99 0.089 6.46 6.54 10.55
4/8/2021 12:15:00 PM 10.65 51.17 0.089 6.46 6.64 10.52
4/8/2021 12:30:00 PM 10.76 51.368 0.089 6.46 6.61 10.5
4/8/2021 12:45:00 PM 10.86 51.548 0.089 6.46 6.69 10.47
4/8/2021 1:00:00 PM 10.95 51.71 0.089 6.46 6.71 10.45
4/8/2021 1:15:00 PM 11.01 51.818 0.089 6.46 6.68 10.43
4/8/2021 1:30:00 PM 11.09 51.962 0.089 6.46 6.78 10.4
4/8/2021 1:45:00 PM 11.14 52.052 0.089 6.46 6.91 10.39
4/8/2021 2:00:00 PM 11.18 52.124 0.089 6.46 7.12 10.38
4/8/2021 2:15:00 PM 11.21 52.178 0.089 6.47 6.39 10.37
4/8/2021 2:30:00 PM 11.23 52.214 0.089 6.47 6.7 10.36
4/8/2021 2:45:00 PM 11.23 52.214 0.089 6.47 6.64 10.35
4/8/2021 3:00:00 PM 11.22 52.196 0.089 6.46 7.06 10.36
4/8/2021 3:15:00 PM 11.2 52.16 0.089 6.47 6.72 10.36
4/8/2021 3:30:00 PM 11.16 52.088 0.089 6.47 6.88 10.36
4/8/2021 3:45:00 PM 11.12 52.016 0.089 6.47 6.89 10.37
4/8/2021 4:00:00 PM 11.07 51.926 0.089 6.47 6.83 10.38
4/8/2021 4:15:00 PM 11.01 51.818 0.089 6.46 7.41 10.4
4/8/2021 4:30:00 PM 10.94 51.692 0.089 6.46 7.19 10.41
4/8/2021 4:45:00 PM 10.86 51.548 0.089 6.46 6.99 10.43
4/8/2021 5:00:00 PM 10.78 51.404 0.089 6.46 7.11 10.45
4/8/2021 5:15:00 PM 10.7 51.26 0.089 6.46 6.92 10.47
4/8/2021 5:30:00 PM 10.62 51.116 0.089 6.46 6.69 10.49
4/8/2021 5:45:00 PM 10.54 50.972 0.089 6.46 6.99 10.51
4/8/2021 6:00:00 PM 10.46 50.828 0.089 6.47 7.14 10.52
4/8/2021 6:15:00 PM 10.39 50.702 0.089 6.46 6.72 10.54
4/8/2021 6:30:00 PM 10.32 50.576 0.089 6.46 6.82 10.56
4/8/2021 6:45:00 PM 10.26 50.468 0.089 6.46 6.68 10.57
4/8/2021 7:00:00 PM 10.2 50.36 0.089 6.46 6.83 10.59
4/8/2021 7:15:00 PM 10.13 50.234 0.089 6.46 6.7 10.61
4/8/2021 7:30:00 PM 10.07 50.126 0.089 6.46 7.17 10.62
4/8/2021 7:45:00 PM 10 50 0.089 6.46 6.93 10.64
4/8/2021 8:00:00 PM 9.95 49.91 0.089 6.46 4.59 10.66
4/8/2021 8:15:00 PM 9.89 49.802 0.089 6.46 4.63 10.68
4/8/2021 8:30:00 PM 9.84 49.712 0.09 6.46 4.65 10.68
4/8/2021 8:45:00 PM 9.8 49.64 0.089 6.46 4.56 10.7
4/8/2021 9:00:00 PM 9.76 49.568 0.09 6.46 4.61 10.71
4/8/2021 9:15:00 PM 9.72 49.496 0.09 6.46 4.56 10.73
4/8/2021 9:30:00 PM 9.68 49.424 0.089 6.46 4.62 10.74
4/8/2021 9:45:00 PM 9.64 49.352 0.089 6.46 4.6 10.75
4/8/2021 10:00:00 PM 9.6 49.28 0.09 6.46 4.69 10.75
4/8/2021 10:15:00 PM 9.56 49.208 0.09 6.46 4.73 10.76
4/8/2021 10:30:00 PM 9.53 49.154 0.089 6.46 4.71 10.78
4/8/2021 10:45:00 PM 9.5 49.1 0.09 6.46 4.68 10.79
4/8/2021 11:00:00 PM 9.47 49.046 0.09 6.46 4.59 10.8
4/8/2021 11:15:00 PM 9.45 49.01 0.09 6.46 4.66 10.8
4/8/2021 11:30:00 PM 9.43 48.974 0.09 6.46 4.75 10.81
4/8/2021 11:45:00 PM 9.41 48.938 0.09 6.46 4.6 10.81
4/9/2021 12:00:00 AM 9.38 48.884 0.09 6.46 4.68 10.82
4/9/2021 12:15:00 AM 9.36 48.848 0.09 6.46 4.65 10.83
4/9/2021 12:30:00 AM 9.34 48.812 0.09 6.46 4.6 10.83
4/9/2021 12:45:00 AM 9.32 48.776 0.09 6.46 4.72 10.84
4/9/2021 1:00:00 AM 9.3 48.74 0.09 6.46 4.78 10.84
4/9/2021 1:15:00 AM 9.28 48.704 0.09 6.46 4.57 10.85
4/9/2021 1:30:00 AM 9.26 48.668 0.09 6.46 4.67 10.85
4/9/2021 1:45:00 AM 9.24 48.632 0.09 6.46 4.66 10.85
4/9/2021 2:00:00 AM 9.22 48.596 0.089 6.46 4.78 10.86
4/9/2021 2:15:00 AM 9.2 48.56 0.086 6.46 4.84 10.88
4/9/2021 2:30:00 AM 9.18 48.524 0.089 6.46 4.75 10.87
4/9/2021 2:45:00 AM 9.16 48.488 0.089 6.46 4.7 10.88
4/9/2021 3:00:00 AM 9.14 48.452 0.09 6.46 4.69 10.89
4/9/2021 3:15:00 AM 9.12 48.416 0.09 6.46 4.52 10.89
4/9/2021 3:30:00 AM 9.1 48.38 0.09 6.46 4.6 10.89
4/9/2021 3:45:00 AM 9.08 48.344 0.09 6.46 4.58 10.89
4/9/2021 4:00:00 AM 9.06 48.308 0.09 6.46 4.65 10.91
4/9/2021 4:15:00 AM 9.04 48.272 0.09 6.46 4.88 10.91
4/9/2021 4:30:00 AM 9.02 48.236 0.09 6.46 4.79 10.92
4/9/2021 4:45:00 AM 9 48.2 0.09 6.46 4.67 10.92
4/9/2021 5:00:00 AM 8.99 48.182 0.09 6.46 4.75 10.93
4/9/2021 5:15:00 AM 8.97 48.146 0.09 6.46 4.79 10.94
4/9/2021 5:30:00 AM 8.96 48.128 0.09 6.46 4.67 10.94
4/9/2021 5:45:00 AM 8.95 48.11 0.09 6.46 4.78 10.94
4/9/2021 6:00:00 AM 8.93 48.074 0.09 6.46 4.76 10.95
4/9/2021 6:15:00 AM 8.92 48.056 0.09 6.46 4.68 10.95
4/9/2021 6:30:00 AM 8.91 48.038 0.09 6.46 4.65 10.96
4/9/2021 6:45:00 AM 8.9 48.02 0.091 6.46 4.68 10.96
4/9/2021 7:00:00 AM 8.89 48.002 0.09 6.46 4.57 10.97
4/9/2021 7:15:00 AM 8.89 48.002 0.09 6.46 4.54 10.97
4/9/2021 7:30:00 AM 8.89 48.002 0.09 6.46 4.68 10.97
4/9/2021 7:45:00 AM 8.89 48.002 0.091 6.46 4.55 10.97
4/9/2021 8:00:00 AM 8.9 48.02 0.091 6.47 4.75 10.97
4/9/2021 8:15:00 AM 8.9 48.02 0.091 6.46 4.59 10.97
4/9/2021 8:30:00 AM 8.91 48.038 0.091 6.47 4.54 10.97
4/9/2021 8:45:00 AM 8.92 48.056 0.091 6.47 4.53 10.97
4/9/2021 9:00:00 AM 8.93 48.074 0.091 6.47 4.57 10.97
4/9/2021 9:15:00 AM 8.96 48.128 0.091 6.47 4.58 10.96
4/9/2021 9:30:00 AM 8.98 48.164 0.091 6.47 4.71 10.95
4/9/2021 9:45:00 AM 9.01 48.218 0.091 6.47 4.64 10.95
4/9/2021 10:00:00 AM 9.03 48.254 0.091 6.47 4.73 10.95
4/9/2021 10:15:00 AM 9.05 48.29 0.091 6.47 4.55 10.93
4/9/2021 10:30:00 AM 9.09 48.362 0.091 6.47 4.75 10.93
4/9/2021 10:45:00 AM 9.12 48.416 0.091 6.47 4.88 10.92
4/9/2021 11:00:00 AM 9.17 48.506 0.091 6.47 4.9 10.92
4/9/2021 11:15:00 AM 9.2 48.56 0.091 6.47 4.78 10.9
4/9/2021 11:30:00 AM 9.23 48.614 0.091 6.47 4.81 10.9
4/9/2021 11:45:00 AM 9.25 48.65 0.091 6.47 4.75 10.88
4/9/2021 12:00:00 PM 9.25 48.65 0.091 6.47 4.67 10.88
4/9/2021 12:15:00 PM 9.28 48.704 0.091 6.47 4.54 10.89
4/9/2021 12:30:00 PM 9.32 48.776 0.091 6.47 4.71 10.88
4/9/2021 12:45:00 PM 9.35 48.83 0.091 6.47 4.54 10.87
4/9/2021 1:00:00 PM 9.39 48.902 0.091 6.47 4.61 10.86
4/9/2021 1:15:00 PM 9.41 48.938 0.091 6.47 4.57 10.85
4/9/2021 1:30:00 PM 9.44 48.992 0.091 6.47 4.66 10.83
4/9/2021 1:45:00 PM 9.47 49.046 0.091 6.47 4.56 10.82
4/9/2021 2:00:00 PM 9.48 49.064 0.091 6.47 4.62 10.82
4/9/2021 2:15:00 PM 9.5 49.1 0.091 6.47 4.54 10.82
4/9/2021 2:30:00 PM 9.51 49.118 0.091 6.47 4.88 10.81
4/9/2021 2:45:00 PM 9.54 49.172 0.091 6.47 4.71 10.8
4/9/2021 3:00:00 PM 9.56 49.208 0.091 6.47 4.6 10.79
4/9/2021 3:15:00 PM 9.6 49.28 0.091 6.47 4.6 10.79
4/9/2021 3:30:00 PM 9.63 49.334 0.091 6.47 4.57 10.77
4/9/2021 3:45:00 PM 9.65 49.37 0.091 6.47 4.61 10.77
4/9/2021 4:00:00 PM 9.67 49.406 0.091 6.47 4.53 10.76
4/9/2021 4:15:00 PM 9.67 49.406 0.091 6.47 4.64 10.77
4/9/2021 4:30:00 PM 9.67 49.406 0.091 6.47 4.53 10.77
4/9/2021 4:45:00 PM 9.65 49.37 0.091 6.47 4.72 10.77
4/9/2021 5:00:00 PM 9.64 49.352 0.091 6.47 4.56 10.77
4/9/2021 5:15:00 PM 9.62 49.316 0.091 6.47 4.74 10.78
4/9/2021 5:30:00 PM 9.59 49.262 0.091 6.47 4.57 10.78
4/9/2021 5:45:00 PM 9.55 49.19 0.091 6.46 4.67 10.79
4/9/2021 6:00:00 PM 9.52 49.136 0.091 6.46 4.7 10.79
4/9/2021 6:15:00 PM 9.49 49.082 0.091 6.46 4.63 10.8
4/9/2021 6:30:00 PM 9.47 49.046 0.091 6.46 4.7 10.8
4/9/2021 6:45:00 PM 9.45 49.01 0.091 6.46 5.46 10.81
4/9/2021 7:00:00 PM 9.42 48.956 0.091 6.46 4.68 10.81
4/9/2021 7:15:00 PM 9.4 48.92 0.091 6.46 4.7 10.82
4/9/2021 7:30:00 PM 9.39 48.902 0.091 6.46 4.71 10.83
4/9/2021 7:45:00 PM 9.37 48.866 0.091 6.46 4.66 10.83
4/9/2021 8:00:00 PM 9.35 48.83 0.091 6.46 4.74 10.84
4/9/2021 8:15:00 PM 9.33 48.794 0.091 6.46 4.63 10.84
4/9/2021 8:30:00 PM 9.31 48.758 0.091 6.46 4.7 10.85
4/9/2021 8:45:00 PM 9.3 48.74 0.091 6.46 4.56 10.85
4/9/2021 9:00:00 PM 9.28 48.704 0.091 6.46 4.75 10.85
4/9/2021 9:15:00 PM 9.27 48.686 0.091 6.46 4.7 10.87
4/9/2021 9:30:00 PM 9.25 48.65 0.091 6.46 4.67 10.86
4/9/2021 9:45:00 PM 9.24 48.632 0.091 6.46 4.66 10.87
4/9/2021 10:00:00 PM 9.22 48.596 0.091 6.46 12.72 10.87
4/9/2021 10:15:00 PM 9.21 48.578 0.091 6.46 4.7 10.87
4/9/2021 10:30:00 PM 9.19 48.542 0.091 6.46 4.67 10.87
4/9/2021 10:45:00 PM 9.18 48.524 0.091 6.46 4.59 10.88
4/9/2021 11:00:00 PM 9.17 48.506 0.091 6.46 4.59 10.89
4/9/2021 11:15:00 PM 9.15 48.47 0.091 6.46 4.66 10.89
4/9/2021 11:30:00 PM 9.14 48.452 0.091 6.46 4.72 10.88
4/9/2021 11:45:00 PM 9.13 48.434 0.091 6.46 4.48 10.9
4/10/2021 12:00:00 AM 9.12 48.416 0.091 6.46 4.59 10.9
4/10/2021 12:15:00 AM 9.11 48.398 0.091 6.46 4.75 10.91
4/10/2021 12:30:00 AM 9.1 48.38 0.091 6.46 4.69 10.9
4/10/2021 12:45:00 AM 9.09 48.362 0.091 6.46 4.69 10.91
4/10/2021 1:00:00 AM 9.08 48.344 0.091 6.46 4.67 10.91
4/10/2021 1:15:00 AM 9.07 48.326 0.091 6.46 4.55 10.91
4/10/2021 1:30:00 AM 9.06 48.308 0.091 6.46 4.6 10.9
4/10/2021 1:45:00 AM 9.06 48.308 0.091 6.46 4.57 10.91
4/10/2021 2:00:00 AM 9.05 48.29 0.091 6.46 4.7 10.91
4/10/2021 2:15:00 AM 9.04 48.272 0.091 6.46 4.59 10.9
4/10/2021 2:30:00 AM 9.04 48.272 0.091 6.46 15.01 10.9
4/10/2021 2:45:00 AM 9.03 48.254 0.091 6.46 4.48 10.89
4/10/2021 3:00:00 AM 9.03 48.254 0.091 6.46 4.57 10.9
4/10/2021 3:15:00 AM 9.02 48.236 0.091 6.46 4.9 10.9
4/10/2021 3:30:00 AM 9.02 48.236 0.091 6.46 4.72 10.9
4/10/2021 3:45:00 AM 9.01 48.218 0.091 6.46 4.63 10.91
4/10/2021 4:00:00 AM 9.01 48.218 0.091 6.46 4.84 10.91
4/10/2021 4:15:00 AM 9 48.2 0.091 6.46 4.68 10.91
4/10/2021 4:30:00 AM 9 48.2 0.091 6.46 4.58 10.91
4/10/2021 4:45:00 AM 8.99 48.182 0.091 6.46 4.66 10.91
4/10/2021 5:00:00 AM 8.99 48.182 0.091 6.46 4.67 10.92
4/10/2021 5:15:00 AM 8.99 48.182 0.091 6.46 4.76 10.92
4/10/2021 5:30:00 AM 8.99 48.182 0.091 6.46 4.66 10.91
4/10/2021 5:45:00 AM 8.99 48.182 0.091 6.46 4.49 10.92
4/10/2021 6:00:00 AM 8.99 48.182 0.091 6.46 4.64 10.91
4/10/2021 6:15:00 AM 8.99 48.182 0.091 6.46 4.61 10.92
4/10/2021 6:30:00 AM 8.99 48.182 0.091 6.46 4.56 10.92
4/10/2021 6:45:00 AM 9 48.2 0.091 6.46 4.63 10.92
4/10/2021 7:00:00 AM 9.02 48.236 0.091 6.47 4.56 10.92
4/10/2021 7:15:00 AM 9.04 48.272 0.091 6.47 4.74 10.91
4/10/2021 7:30:00 AM 9.07 48.326 0.091 6.47 4.45 10.9
4/10/2021 7:45:00 AM 9.1 48.38 0.091 6.47 4.56 10.9
4/10/2021 8:00:00 AM 9.13 48.434 0.091 6.47 4.66 10.9
4/10/2021 8:15:00 AM 9.17 48.506 0.091 6.47 4.46 10.88
4/10/2021 8:30:00 AM 9.23 48.614 0.091 6.47 4.64 10.86
4/10/2021 8:45:00 AM 9.29 48.722 0.091 6.48 4.61 10.85
4/10/2021 9:00:00 AM 9.36 48.848 0.091 6.48 4.46 10.83
4/10/2021 9:15:00 AM 9.47 49.046 0.091 6.48 4.62 10.81
4/10/2021 9:30:00 AM 9.61 49.298 0.091 6.48 4.54 10.77
4/10/2021 9:45:00 AM 9.76 49.568 0.091 6.48 4.5 10.73
4/10/2021 10:00:00 AM 9.94 49.892 0.091 6.48 4.47 10.69
4/10/2021 10:15:00 AM 10.08 50.144 0.091 6.49 4.53 10.64
4/10/2021 10:30:00 AM 10.22 50.396 0.091 6.49 4.41 10.6
4/10/2021 10:45:00 AM 10.37 50.666 0.091 6.49 4.39 10.57
4/10/2021 11:00:00 AM 10.53 50.954 0.091 6.49 4.4 10.53
4/10/2021 11:15:00 AM 10.71 51.278 0.091 6.49 4.54 10.48
4/10/2021 11:30:00 AM 10.88 51.584 0.091 6.49 4.71 10.43
4/10/2021 11:45:00 AM 11.02 51.836 0.091 6.49 4.63 10.4
4/10/2021 12:00:00 PM 11.16 52.088 0.091 6.49 4.53 10.37
4/10/2021 12:15:00 PM 11.27 52.286 0.091 6.49 4.31 10.34
4/10/2021 12:30:00 PM 11.35 52.43 0.091 6.5 4.42 10.31
4/10/2021 12:45:00 PM 11.43 52.574 0.091 6.5 4.56 10.29
4/10/2021 1:00:00 PM 11.5 52.7 0.091 6.5 4.48 10.27
4/10/2021 1:15:00 PM 11.56 52.808 0.091 6.5 4.36 10.25
4/10/2021 1:30:00 PM 11.62 52.916 0.091 6.5 4.57 10.24
4/10/2021 1:45:00 PM 11.65 52.97 0.091 6.5 4.52 10.23
4/10/2021 2:00:00 PM 11.68 53.024 0.091 6.5 4.31 10.22
4/10/2021 2:15:00 PM 11.69 53.042 0.091 6.5 4.75 10.21
4/10/2021 2:30:00 PM 11.7 53.06 0.091 6.5 4.43 10.21
4/10/2021 2:45:00 PM 11.69 53.042 0.091 6.5 5.83 10.21
4/10/2021 3:00:00 PM 11.66 52.988 0.091 6.5 6 10.21
4/10/2021 3:15:00 PM 11.64 52.952 0.091 6.5 5.92 10.22
4/10/2021 3:30:00 PM 11.6 52.88 0.091 6.5 5.95 10.22
4/10/2021 3:45:00 PM 11.55 52.79 0.091 6.49 5.99 10.23
4/10/2021 4:00:00 PM 11.5 52.7 0.091 6.5 6.25 10.24
4/10/2021 4:15:00 PM 11.44 52.592 0.091 6.5 5.98 10.26
4/10/2021 4:30:00 PM 11.38 52.484 0.091 6.5 6.07 10.27
4/10/2021 4:45:00 PM 11.31 52.358 0.091 6.5 5.91 10.28
4/10/2021 5:00:00 PM 11.24 52.232 0.091 6.5 5.99 10.29
4/10/2021 5:15:00 PM 11.17 52.106 0.092 6.5 6 10.3
4/10/2021 5:30:00 PM 11.1 51.98 0.092 6.5 6.15 10.31
4/10/2021 5:45:00 PM 11.03 51.854 0.092 6.5 5.95 10.33
4/10/2021 6:00:00 PM 10.95 51.71 0.092 6.5 6.13 10.34
4/10/2021 6:15:00 PM 10.88 51.584 0.092 6.49 6.19 10.36
4/10/2021 6:30:00 PM 10.82 51.476 0.092 6.49 6.11 10.37
4/10/2021 6:45:00 PM 10.76 51.368 0.092 6.49 6.19 10.38
4/10/2021 7:00:00 PM 10.7 51.26 0.092 6.49 6.2 10.39
4/10/2021 7:15:00 PM 10.65 51.17 0.092 6.49 6.1 10.4
4/10/2021 7:30:00 PM 10.6 51.08 0.092 6.49 6.15 10.41
4/10/2021 7:45:00 PM 10.55 50.99 0.092 6.49 6.18 10.43
4/10/2021 8:00:00 PM 10.51 50.918 0.092 6.49 6.04 10.43
4/10/2021 8:15:00 PM 10.48 50.864 0.092 6.49 6.18 10.45
4/10/2021 8:30:00 PM 10.44 50.792 0.092 6.49 6.09 10.45
4/10/2021 8:45:00 PM 10.4 50.72 0.092 6.49 6.08 10.47
4/10/2021 9:00:00 PM 10.37 50.666 0.092 6.49 5.86 10.47
4/10/2021 9:15:00 PM 10.34 50.612 0.092 6.49 7.83 10.47
4/10/2021 9:30:00 PM 10.32 50.576 0.092 6.49 4.35 10.49
4/10/2021 9:45:00 PM 10.29 50.522 0.092 6.49 3.1 10.49
4/10/2021 10:00:00 PM 10.26 50.468 0.092 6.49 3.24 10.49
4/10/2021 10:15:00 PM 10.23 50.414 0.092 6.49 3.14 10.5
4/10/2021 10:30:00 PM 10.21 50.378 0.092 6.49 3.09 10.51
4/10/2021 10:45:00 PM 10.18 50.324 0.092 6.49 3.08 10.51
4/10/2021 11:00:00 PM 10.16 50.288 0.092 6.49 3.08 10.52
4/10/2021 11:15:00 PM 10.13 50.234 0.092 6.49 3.16 10.52
4/10/2021 11:30:00 PM 10.11 50.198 0.092 6.48 3.22 10.52
4/10/2021 11:45:00 PM 10.09 50.162 0.092 6.48 3.51 10.52
4/11/2021 12:00:00 AM 10.08 50.144 0.092 6.48 3.41 10.52
4/11/2021 12:15:00 AM 10.06 50.108 0.091 6.48 3.46 10.53
4/11/2021 12:30:00 AM 10.06 50.108 0.091 6.49 3.67 10.52
4/11/2021 12:45:00 AM 10.05 50.09 0.091 6.49 3.95 10.52
4/11/2021 1:00:00 AM 10.04 50.072 0.091 6.49 3.83 10.52
4/11/2021 1:15:00 AM 10.03 50.054 0.092 6.49 4.29 10.52
4/11/2021 1:30:00 AM 10.02 50.036 0.092 6.5 4.36 10.52
4/11/2021 1:45:00 AM 10.01 50.018 0.092 6.52 5 10.52
4/11/2021 2:00:00 AM 10 50 0.092 6.54 6.03 10.52
4/11/2021 2:15:00 AM 9.99 49.982 0.093 6.55 6.63 10.52
4/11/2021 2:30:00 AM 9.99 49.982 0.095 6.58 6.6 10.52
4/11/2021 2:45:00 AM 9.98 49.964 0.103 6.6 7.69 10.52
4/11/2021 3:00:00 AM 9.96 49.928 0.111 6.63 8.92 10.53
4/11/2021 3:15:00 AM 9.94 49.892 0.117 6.68 10.37 10.54
4/11/2021 3:30:00 AM 9.93 49.874 0.123 6.71 10.8 10.53
4/11/2021 3:45:00 AM 9.92 49.856 0.126 6.76 11.87 10.53
4/11/2021 4:00:00 AM 9.89 49.802 0.13 6.8 11.25 10.55
4/11/2021 4:15:00 AM 9.87 49.766 0.132 6.82 12.44 10.55
4/11/2021 4:30:00 AM 9.84 49.712 0.132 6.84 11.6 10.56
4/11/2021 4:45:00 AM 9.81 49.658 0.133 6.86 11.42 10.56
4/11/2021 5:00:00 AM 9.79 49.622 0.135 6.86 11.42 10.57
4/11/2021 8:30:00 AM 9.43 48.974 0.142 6.91 13.56 10.7
4/11/2021 8:45:00 AM 9.45 49.01 0.14 6.93 12.57 10.69
4/11/2021 9:00:00 AM 9.48 49.064 0.138 6.93 11.42 10.69
4/11/2021 9:15:00 AM 9.51 49.118 0.138 6.94 10.66 10.68
4/11/2021 9:30:00 AM 9.54 49.172 0.138 6.94 9.65 10.67
4/11/2021 9:45:00 AM 9.59 49.262 0.136 6.93 9.76 10.66
4/11/2021 10:00:00 AM 9.65 49.37 0.135 6.92 9.03 10.65
4/11/2021 10:15:00 AM 9.69 49.442 0.134 6.91 8.82 10.64
4/11/2021 10:30:00 AM 9.74 49.532 0.134 6.9 8.31 10.63
4/11/2021 10:45:00 AM 9.82 49.676 0.134 6.9 7.91 10.61
4/11/2021 11:00:00 AM 9.86 49.748 0.134 6.9 7.93 10.59
4/11/2021 11:15:00 AM 9.86 49.748 0.134 6.89 7.31 10.59
4/11/2021 11:30:00 AM 9.84 49.712 0.134 6.89 7.19 10.59
4/11/2021 11:45:00 AM 9.85 49.73 0.134 6.89 6.92 10.59
4/11/2021 12:00:00 PM 9.91 49.838 0.134 6.89 6.84 10.57
4/11/2021 12:15:00 PM 9.87 49.766 0.134 6.88 6.84 10.57
4/11/2021 12:30:00 PM 9.79 49.622 0.134 6.88 6.6 10.59
4/11/2021 12:45:00 PM 9.76 49.568 0.134 6.88 6.32 10.6
4/11/2021 1:00:00 PM 9.77 49.586 0.134 6.88 6.06 10.6
4/11/2021 1:15:00 PM 9.79 49.622 0.135 6.87 6.09 10.6
4/11/2021 1:30:00 PM 9.82 49.676 0.135 6.88 5.99 10.59
4/11/2021 1:45:00 PM 9.85 49.73 0.135 6.87 5.68 10.58
4/11/2021 2:00:00 PM 9.91 49.838 0.136 6.87 5.75 10.57
4/11/2021 2:15:00 PM 10 50 0.136 6.87 5.68 10.54
4/11/2021 2:30:00 PM 10.01 50.018 0.136 6.86 5.35 10.53
4/11/2021 2:45:00 PM 10.11 50.198 0.136 6.86 5.47 10.51
4/11/2021 3:00:00 PM 10.09 50.162 0.136 6.86 5.33 10.51
4/11/2021 3:15:00 PM 10.08 50.144 0.137 6.85 5.17 10.51
4/11/2021 3:30:00 PM 10.08 50.144 0.137 6.85 5.23 10.51
4/11/2021 3:45:00 PM 10.05 50.09 0.137 6.84 5.16 10.52
4/11/2021 4:00:00 PM 10.08 50.144 0.137 6.84 4.96 10.51
4/11/2021 4:15:00 PM 10.11 50.198 0.137 6.84 4.87 10.5
4/11/2021 4:30:00 PM 10.11 50.198 0.136 6.84 4.77 10.5
4/11/2021 4:45:00 PM 10.07 50.126 0.136 6.83 4.86 10.5
4/11/2021 5:00:00 PM 10.02 50.036 0.136 6.82 4.72 10.51
4/12/2021 8:45:00 AM 8.72 47.696 0.127 6.73 3.25 10.9
4/12/2021 9:00:00 AM 8.76 47.768 0.127 6.73 3.29 10.91
4/12/2021 9:15:00 AM 8.78 47.804 0.127 6.72 3.18 10.9
4/12/2021 9:30:00 AM 8.81 47.858 0.127 6.72 3.23 10.9
4/12/2021 9:45:00 AM 8.84 47.912 0.126 6.72 3.11 10.89
4/12/2021 10:00:00 AM 8.87 47.966 0.126 6.73 3.23 10.89
4/12/2021 10:15:00 AM 8.89 48.002 0.125 6.73 3.09 10.88
4/12/2021 10:30:00 AM 8.93 48.074 0.125 6.73 3.24 10.87
4/12/2021 10:45:00 AM 8.92 48.056 0.125 6.72 3.31 10.87
4/12/2021 11:00:00 AM 8.91 48.038 0.125 6.72 3.35 10.87
4/12/2021 11:15:00 AM 8.9 48.02 0.124 6.72 3.33 10.88
4/12/2021 11:30:00 AM 8.88 47.984 0.124 6.72 3.32 10.87
4/12/2021 11:45:00 AM 8.88 47.984 0.124 6.72 3.27 10.88
4/12/2021 12:00:00 PM 8.91 48.038 0.124 6.72 3.27 10.88
4/12/2021 12:15:00 PM 8.97 48.146 0.124 6.72 3.2 10.87
4/12/2021 12:30:00 PM 9.04 48.272 0.123 6.72 3.23 10.86
4/12/2021 12:45:00 PM 9.1 48.38 0.123 6.72 3.28 10.83
4/12/2021 1:00:00 PM 9.14 48.452 0.123 6.72 3.28 10.82
4/12/2021 1:15:00 PM 9.19 48.542 0.123 6.73 3.08 10.82
4/12/2021 1:30:00 PM 9.31 48.758 0.123 6.73 3.19 10.79
4/12/2021 1:45:00 PM 9.33 48.794 0.122 6.73 3.17 10.77
4/12/2021 2:00:00 PM 9.33 48.794 0.122 6.72 3.07 10.76
4/12/2021 2:15:00 PM 9.29 48.722 0.122 6.72 3.11 10.77
4/12/2021 2:30:00 PM 9.23 48.614 0.122 6.72 3.17 10.79
4/12/2021 2:45:00 PM 9.22 48.596 0.121 6.72 3.27 10.8
4/12/2021 3:00:00 PM 9.26 48.668 0.121 6.72 3.14 10.8
4/12/2021 3:15:00 PM 9.32 48.776 0.121 6.72 3.25 10.79
4/12/2021 3:30:00 PM 9.38 48.884 0.12 6.72 3.17 10.77
4/12/2021 3:45:00 PM 9.35 48.83 0.12 6.72 3.19 10.77
4/12/2021 4:00:00 PM 9.32 48.776 0.12 6.71 3.24 10.78
4/12/2021 4:15:00 PM 9.27 48.686 0.119 6.71 3.12 10.8
4/12/2021 4:30:00 PM 9.23 48.614 0.119 6.71 3.25 10.81
4/12/2021 4:45:00 PM 9.22 48.596 0.119 6.71 3.04 10.81
4/12/2021 5:00:00 PM 9.21 48.578 0.118 6.7 3.22 10.81
4/12/2021 5:15:00 PM 9.21 48.578 0.118 6.7 3.18 10.81
4/12/2021 5:30:00 PM 9.19 48.542 0.118 6.7 3.24 10.83
4/12/2021 5:45:00 PM 9.17 48.506 0.117 6.7 3.42 10.83
4/12/2021 6:00:00 PM 9.15 48.47 0.117 6.7 3.23 10.84
4/12/2021 6:15:00 PM 9.14 48.452 0.117 6.7 3.17 10.84
4/12/2021 6:30:00 PM 9.12 48.416 0.117 6.69 3.23 10.85
4/12/2021 6:45:00 PM 9.09 48.362 0.117 6.69 3.17 10.86
4/12/2021 7:00:00 PM 9.06 48.308 0.117 6.69 3.2 10.86
4/13/2021 7:45:00 AM 8.45 47.21 0.105 6.63 2.98 11.13
4/13/2021 8:00:00 AM 8.46 47.228 0.104 6.63 2.93 11.13
4/13/2021 8:15:00 AM 8.52 47.336 0.104 6.63 2.99 11.12
4/13/2021 8:30:00 AM 8.57 47.426 0.104 6.63 2.88 11.11
4/13/2021 8:45:00 AM 8.66 47.588 0.104 6.63 3.09 11.09
4/13/2021 9:00:00 AM 8.74 47.732 0.103 6.63 2.87 11.07
4/13/2021 9:15:00 AM 8.79 47.822 0.103 6.63 3.16 11.06
4/13/2021 9:30:00 AM 8.85 47.93 0.103 6.63 2.95 11.04
4/13/2021 9:45:00 AM 8.94 48.092 0.103 6.63 3.11 11.01
4/13/2021 10:00:00 AM 9.06 48.308 0.103 6.63 3.02 10.99
4/13/2021 10:15:00 AM 9.14 48.452 0.103 6.63 2.98 10.96
4/13/2021 10:30:00 AM 9.18 48.524 0.102 6.63 3.03 10.95
4/13/2021 10:45:00 AM 9.22 48.596 0.102 6.63 3.01 10.93
4/13/2021 11:00:00 AM 9.27 48.686 0.102 6.63 3.2 10.93
4/13/2021 11:15:00 AM 9.35 48.83 0.102 6.63 3.03 10.9
4/13/2021 11:30:00 AM 9.48 49.064 0.102 6.63 2.97 10.88
4/13/2021 11:45:00 AM 9.51 49.118 0.101 6.63 2.92 10.85
4/13/2021 12:00:00 PM 9.56 49.208 0.101 6.63 3.15 10.84
4/13/2021 12:15:00 PM 9.67 49.406 0.101 6.63 3.11 10.83
4/13/2021 12:30:00 PM 9.8 49.64 0.101 6.63 2.93 10.8
4/13/2021 12:45:00 PM 10 50 0.101 6.63 2.91 10.73
4/13/2021 1:00:00 PM 10.19 50.342 0.101 6.63 2.99 10.69
4/13/2021 1:30:00 PM 10.45 50.81 0.1 6.63 3.1 10.61
4/13/2021 1:45:00 PM 10.41 50.738 0.1 6.63 2.84 10.62
4/13/2021 2:00:00 PM 10.43 50.774 0.1 6.63 2.97 10.61
4/13/2021 2:15:00 PM 10.46 50.828 0.1 6.63 3.1 10.61
4/13/2021 2:30:00 PM 10.52 50.936 0.1 6.63 2.96 10.6
4/13/2021 2:45:00 PM 10.58 51.044 0.1 6.63 2.98 10.58
4/13/2021 3:00:00 PM 10.56 51.008 0.099 6.63 3.19 10.58
4/13/2021 3:15:00 PM 10.55 50.99 0.099 6.63 3.18 10.57
4/13/2021 3:30:00 PM 10.54 50.972 0.099 6.63 2.97 10.58
4/13/2021 3:45:00 PM 10.5 50.9 0.099 6.63 3.05 10.58
4/13/2021 4:00:00 PM 10.48 50.864 0.099 6.63 3.02 10.57
4/13/2021 4:15:00 PM 10.44 50.792 0.099 6.63 2.92 10.6
4/13/2021 4:30:00 PM 10.37 50.666 0.099 6.62 2.94 10.62
4/13/2021 4:45:00 PM 10.28 50.504 0.099 6.62 3.11 10.64
4/13/2021 5:00:00 PM 10.2 50.36 0.098 6.62 2.96 10.65
4/13/2021 5:15:00 PM 10.12 50.216 0.098 6.62 3.03 10.68
4/13/2021 5:30:00 PM 10.05 50.09 0.098 6.61 2.91 10.69
4/13/2021 5:45:00 PM 9.98 49.964 0.098 6.61 3.12 10.7
4/13/2021 6:00:00 PM 9.91 49.838 0.098 6.6 3.2 10.73
4/13/2021 6:15:00 PM 9.85 49.73 0.098 6.6 2.99 10.74
4/13/2021 6:30:00 PM 9.79 49.622 0.098 6.59 2.96 10.76
4/13/2021 6:45:00 PM 9.74 49.532 0.097 6.59 3.13 10.77
4/13/2021 7:00:00 PM 9.67 49.406 0.097 6.58 3.01 10.78
4/14/2021 7:30:00 AM 8.26 46.868 0.092 6.55 2.98 11.19
4/14/2021 7:45:00 AM 8.32 46.976 0.092 6.55 3.11 11.18
4/14/2021 8:00:00 AM 8.39 47.102 0.092 6.55 2.94 11.16
4/14/2021 8:15:00 AM 8.47 47.246 0.092 6.55 2.92 11.14
4/14/2021 8:30:00 AM 8.56 47.408 0.092 6.55 3.04 11.12
4/14/2021 8:45:00 AM 8.65 47.57 0.092 6.55 2.97 11.09
4/14/2021 9:00:00 AM 8.71 47.678 0.091 6.55 3.01 11.08
4/14/2021 9:15:00 AM 8.74 47.732 0.091 6.55 2.95 11.06
4/14/2021 9:30:00 AM 8.77 47.786 0.091 6.56 2.94 11.06
4/14/2021 9:45:00 AM 8.83 47.894 0.091 6.55 2.97 11.05
4/14/2021 10:00:00 AM 8.88 47.984 0.091 6.56 2.93 11.02
4/14/2021 10:15:00 AM 9 48.2 0.091 6.56 3.02 11
4/14/2021 10:30:00 AM 9.08 48.344 0.091 6.56 2.94 10.98
4/14/2021 10:45:00 AM 9.21 48.578 0.091 6.56 2.95 10.93
4/14/2021 11:00:00 AM 9.36 48.848 0.091 6.56 2.98 10.9
4/14/2021 11:15:00 AM 9.53 49.154 0.091 6.56 3.02 10.85
4/14/2021 11:30:00 AM 9.68 49.424 0.091 6.56 3.02 10.82
4/14/2021 11:45:00 AM 9.71 49.478 0.091 6.56 2.96 10.8
4/14/2021 12:00:00 PM 9.72 49.496 0.091 6.56 3.12 10.79
4/14/2021 12:15:00 PM 9.73 49.514 0.09 6.56 2.94 10.78
4/14/2021 12:30:00 PM 9.7 49.46 0.09 6.56 2.99 10.79
4/14/2021 12:45:00 PM 9.84 49.712 0.09 6.56 2.95 10.76
4/14/2021 1:00:00 PM 9.89 49.802 0.09 6.56 3.04 10.73
4/14/2021 1:15:00 PM 9.96 49.928 0.09 6.56 2.98 10.71
4/14/2021 1:30:00 PM 10.06 50.108 0.09 6.56 2.97 10.69
4/14/2021 1:45:00 PM 10.17 50.306 0.09 6.56 2.93 10.65
4/14/2021 2:00:00 PM 10.15 50.27 0.09 6.56 2.95 10.65
4/14/2021 2:15:00 PM 10.2 50.36 0.09 6.56 2.91 10.64
4/14/2021 2:30:00 PM 10.19 50.342 0.09 6.56 3.05 10.64
4/14/2021 2:45:00 PM 10.2 50.36 0.09 6.56 2.99 10.64
4/14/2021 3:00:00 PM 10.22 50.396 0.09 6.56 3.14 10.63
4/14/2021 3:15:00 PM 10.2 50.36 0.09 6.56 2.98 10.63
4/14/2021 3:30:00 PM 10.2 50.36 0.09 6.56 3.05 10.63
4/14/2021 3:45:00 PM 10.15 50.27 0.09 6.56 2.93 10.62
4/14/2021 4:00:00 PM 10.15 50.27 0.09 6.56 2.97 10.63
4/14/2021 4:15:00 PM 10.1 50.18 0.089 6.56 2.99 10.65
4/14/2021 4:30:00 PM 10.04 50.072 0.089 6.56 3 10.65
4/14/2021 4:45:00 PM 9.98 49.964 0.089 6.56 3.1 10.67
4/14/2021 5:00:00 PM 9.93 49.874 0.089 6.56 3.03 10.68
4/14/2021 5:15:00 PM 9.87 49.766 0.089 6.56 2.98 10.69
4/14/2021 5:30:00 PM 9.82 49.676 0.089 6.56 3.17 10.71
4/14/2021 5:45:00 PM 9.75 49.55 0.089 6.55 2.97 10.72
4/14/2021 6:00:00 PM 9.68 49.424 0.089 6.55 3.15 10.74
4/14/2021 6:15:00 PM 9.64 49.352 0.089 6.54 2.97 10.75
4/14/2021 6:30:00 PM 9.58 49.244 0.089 6.54 3.14 10.76
4/14/2021 6:45:00 PM 9.52 49.136 0.089 6.53 3.14 10.76
4/14/2021 7:00:00 PM -99999.99 -179968 -99999.99 -99999.99 -99999.99 -99999.99
4/14/2021 7:15:00 PM -99999.99 -179968 -99999.99 -99999.99 -99999.99 -99999.99
4/14/2021 7:30:00 PM -99999.99 -179968 -99999.99 -99999.99 -99999.99 -99999.99
4/14/2021 7:45:00 PM -99999.99 -179968 -99999.99 -99999.99 -99999.99 -99999.99
4/14/2021 8:00:00 PM -99999.99 -179968 -99999.99 -99999.99 -99999.99 -99999.99
4/14/2021 8:15:00 PM -99999.99 -179968 -99999.99 -99999.99 -99999.99 -99999.99
4/14/2021 8:30:00 PM -99999.99 -179968 -99999.99 -99999.99 -99999.99 -99999.99
4/14/2021 8:45:00 PM -99999.99 -179968 -99999.99 -99999.99 -99999.99 -99999.99
4/14/2021 9:00:00 PM -99999.99 -179968 -99999.99 -99999.99 -99999.99 -99999.99
4/14/2021 9:15:00 PM -99999.99 -179968 -99999.99 -99999.99 -99999.99 -99999.99
4/14/2021 9:30:00 PM -99999.99 -179968 -99999.99 -99999.99 -99999.99 -99999.99
4/14/2021 9:45:00 PM -99999.99 -179968 -99999.99 -99999.99 -99999.99 -99999.99
4/14/2021 10:00:00 PM -99999.99 -179968 -99999.99 -99999.99 -99999.99 -99999.99
4/14/2021 10:15:00 PM -99999.99 -179968 -99999.99 -99999.99 -99999.99 -99999.99
4/14/2021 10:30:00 PM -99999.99 -179968 -99999.99 -99999.99 -99999.99 -99999.99
4/14/2021 10:45:00 PM -99999.99 -179968 -99999.99 -99999.99 -99999.99 -99999.99
4/14/2021 11:00:00 PM -99999.99 -179968 -99999.99 -99999.99 -99999.99 -99999.99
4/14/2021 11:15:00 PM -99999.99 -179968 -99999.99 -99999.99 -99999.99 -99999.99
4/14/2021 11:30:00 PM -99999.99 -179968 -99999.99 -99999.99 -99999.99 -99999.99
4/14/2021 11:45:00 PM -99999.99 -179968 -99999.99 -99999.99 -99999.99 -99999.99
4/15/2021 12:00:00 AM -99999.99 -179968 -99999.99 -99999.99 -99999.99 -99999.99
4/15/2021 12:15:00 AM -99999.99 -179968 -99999.99 -99999.99 -99999.99 -99999.99
4/15/2021 12:30:00 AM -99999.99 -179968 -99999.99 -99999.99 -99999.99 -99999.99
4/15/2021 12:45:00 AM -99999.99 -179968 -99999.99 -99999.99 -99999.99 -99999.99
4/15/2021 1:00:00 AM -99999.99 -179968 -99999.99 -99999.99 -99999.99 -99999.99
4/15/2021 1:15:00 AM -99999.99 -179968 -99999.99 -99999.99 -99999.99 -99999.99
4/15/2021 1:30:00 AM -99999.99 -179968 -99999.99 -99999.99 -99999.99 -99999.99
4/15/2021 1:45:00 AM -99999.99 -179968 -99999.99 -99999.99 -99999.99 -99999.99
4/15/2021 2:00:00 AM -99999.99 -179968 -99999.99 -99999.99 -99999.99 -99999.99
4/15/2021 2:15:00 AM -99999.99 -179968 -99999.99 -99999.99 -99999.99 -99999.99
4/15/2021 2:30:00 AM -99999.99 -179968 -99999.99 -99999.99 -99999.99 -99999.99
4/15/2021 2:45:00 AM -99999.99 -179968 -99999.99 -99999.99 -99999.99 -99999.99
4/15/2021 3:00:00 AM -99999.99 -179968 -99999.99 -99999.99 -99999.99 -99999.99
4/15/2021 3:15:00 AM -99999.99 -179968 -99999.99 -99999.99 -99999.99 -99999.99
4/15/2021 3:30:00 AM -99999.99 -179968 -99999.99 -99999.99 -99999.99 -99999.99
4/15/2021 3:45:00 AM -99999.99 -179968 -99999.99 -99999.99 -99999.99 -99999.99
4/15/2021 4:00:00 AM -99999.99 -179968 -99999.99 -99999.99 -99999.99 -99999.99
4/15/2021 4:15:00 AM -99999.99 -179968 -99999.99 -99999.99 -99999.99 -99999.99
4/15/2021 4:30:00 AM -99999.99 -179968 -99999.99 -99999.99 -99999.99 -99999.99
4/15/2021 4:45:00 AM -99999.99 -179968 -99999.99 -99999.99 -99999.99 -99999.99
4/15/2021 5:00:00 AM -99999.99 -179968 -99999.99 -99999.99 -99999.99 -99999.99
4/15/2021 5:15:00 AM -99999.99 -179968 -99999.99 -99999.99 -99999.99 -99999.99
4/15/2021 5:30:00 AM -99999.99 -179968 -99999.99 -99999.99 -99999.99 -99999.99
4/15/2021 5:45:00 AM -99999.99 -179968 -99999.99 -99999.99 -99999.99 -99999.99
4/15/2021 6:00:00 AM -99999.99 -179968 -99999.99 -99999.99 -99999.99 -99999.99
4/15/2021 6:15:00 AM -99999.99 -179968 -99999.99 -99999.99 -99999.99 -99999.99
4/15/2021 6:30:00 AM -99999.99 -179968 -99999.99 -99999.99 -99999.99 -99999.99
4/15/2021 6:45:00 AM -99999.99 -179968 -99999.99 -99999.99 -99999.99 -99999.99
4/15/2021 7:00:00 AM -99999.99 -179968 -99999.99 -99999.99 -99999.99 -99999.99
4/15/2021 7:15:00 AM -99999.99 -179968 -99999.99 -99999.99 -99999.99 -99999.99
4/15/2021 7:30:00 AM -99999.99 -179968 -99999.99 -99999.99 -99999.99 -99999.99
4/15/2021 7:45:00 AM -99999.99 -179968 -99999.99 -99999.99 -99999.99 -99999.99
4/15/2021 8:00:00 AM -99999.99 -179968 -99999.99 -99999.99 -99999.99 -99999.99
4/15/2021 8:15:00 AM -99999.99 -179968 -99999.99 -99999.99 -99999.99 -99999.99
4/15/2021 8:30:00 AM -99999.99 -179968 -99999.99 -99999.99 -99999.99 -99999.99
4/15/2021 8:45:00 AM -99999.99 -179968 -99999.99 -99999.99 -99999.99 -99999.99
4/15/2021 9:00:00 AM -99999.99 -179968 -99999.99 -99999.99 -99999.99 -99999.99
4/15/2021 9:15:00 AM -99999.99 -179968 -99999.99 -99999.99 -99999.99 -99999.99
4/15/2021 9:30:00 AM -99999.99 -179968 -99999.99 -99999.99 -99999.99 -99999.99
4/15/2021 9:45:00 AM -99999.99 -179968 -99999.99 -99999.99 -99999.99 -99999.99
4/15/2021 10:00:00 AM -99999.99 -179968 -99999.99 -99999.99 -99999.99 -99999.99
4/15/2021 10:15:00 AM -99999.99 -179968 -99999.99 -99999.99 -99999.99 -99999.99
4/15/2021 10:30:00 AM -99999.99 -179968 -99999.99 -99999.99 -99999.99 -99999.99
4/15/2021 10:45:00 AM -99999.99 -179968 -99999.99 -99999.99 -99999.99 -99999.99
4/15/2021 11:00:00 AM -99999.99 -179968 -99999.99 -99999.99 -99999.99 -99999.99
4/15/2021 11:15:00 AM -99999.99 -179968 -99999.99 -99999.99 -99999.99 -99999.99
4/15/2021 11:30:00 AM -99999.99 -179968 -99999.99 -99999.99 -99999.99 -99999.99
4/15/2021 11:45:00 AM -99999.99 -179968 -99999.99 -99999.99 -99999.99 -99999.99
4/15/2021 12:00:00 PM -99999.99 -179968 -99999.99 -99999.99 -99999.99 -99999.99
4/15/2021 12:15:00 PM -99999.99 -179968 -99999.99 -99999.99 -99999.99 -99999.99
4/15/2021 12:30:00 PM -99999.99 -179968 -99999.99 -99999.99 -99999.99 -99999.99
4/15/2021 12:45:00 PM -99999.99 -179968 -99999.99 -99999.99 -99999.99 -99999.99
4/15/2021 1:00:00 PM -99999.99 -179968 -99999.99 -99999.99 -99999.99 -99999.99
4/15/2021 1:15:00 PM -99999.99 -179968 -99999.99 -99999.99 -99999.99 -99999.99
4/15/2021 1:30:00 PM -99999.99 -179968 -99999.99 -99999.99 -99999.99 -99999.99
4/15/2021 1:45:00 PM -99999.99 -179968 -99999.99 -99999.99 -99999.99 -99999.99
4/15/2021 2:00:00 PM -99999.99 -179968 -99999.99 -99999.99 -99999.99 -99999.99
4/15/2021 2:15:00 PM -99999.99 -179968 -99999.99 -99999.99 -99999.99 -99999.99
4/15/2021 2:30:00 PM -99999.99 -179968 -99999.99 -99999.99 -99999.99 -99999.99
4/15/2021 2:45:00 PM -99999.99 -179968 -99999.99 -99999.99 -99999.99 -99999.99
4/15/2021 3:00:00 PM -99999.99 -179968 -99999.99 -99999.99 -99999.99 -99999.99
4/15/2021 3:15:00 PM -99999.99 -179968 -99999.99 -99999.99 -99999.99 -99999.99
4/15/2021 3:30:00 PM -99999.99 -179968 -99999.99 -99999.99 -99999.99 -99999.99
4/15/2021 3:45:00 PM -99999.99 -179968 -99999.99 -99999.99 -99999.99 -99999.99
4/15/2021 4:00:00 PM -99999.99 -179968 -99999.99 -99999.99 -99999.99 -99999.99
4/15/2021 4:15:00 PM -99999.99 -179968 -99999.99 -99999.99 -99999.99 -99999.99
4/15/2021 4:30:00 PM -99999.99 -179968 -99999.99 -99999.99 -99999.99 -99999.99
4/15/2021 4:45:00 PM -99999.99 -179968 -99999.99 -99999.99 -99999.99 -99999.99
4/15/2021 5:00:00 PM -99999.99 -179968 -99999.99 -99999.99 -99999.99 -99999.99
4/16/2021 8:15:00 AM 6.56 43.808 0.095 6.58 3.24 11.55
4/16/2021 8:30:00 AM 6.59 43.862 0.095 6.58 3.24 11.56
4/16/2021 8:45:00 AM 6.61 43.898 0.096 6.58 3.21 11.54
4/16/2021 9:00:00 AM 6.64 43.952 0.096 6.59 3.3 11.53
4/16/2021 9:15:00 AM 6.69 44.042 0.096 6.6 3.3 11.53
4/16/2021 9:30:00 AM 6.78 44.204 0.096 6.6 3.25 11.51
4/16/2021 9:45:00 AM 6.86 44.348 0.097 6.6 3.29 11.48
4/16/2021 10:00:00 AM 6.9 44.42 0.097 6.6 3.32 11.46
4/16/2021 10:15:00 AM 6.97 44.546 0.098 6.61 3.38 11.45
4/16/2021 10:30:00 AM 7.05 44.69 0.098 6.61 3.52 11.42
4/16/2021 10:45:00 AM 7.16 44.888 0.099 6.62 3.39 11.39
4/16/2021 11:00:00 AM 7.18 44.924 0.099 6.62 3.51 11.36
4/16/2021 11:15:00 AM 7.33 45.194 0.1 6.63 3.7 11.34
4/16/2021 11:30:00 AM 7.45 45.41 0.101 6.64 3.48 11.3
4/16/2021 11:45:00 AM 7.5 45.5 0.101 6.64 3.61 11.27
4/16/2021 12:00:00 PM 7.54 45.572 0.102 6.65 3.82 11.27
4/16/2021 12:15:00 PM 7.57 45.626 0.102 6.65 3.66 11.26
4/16/2021 12:30:00 PM 7.75 45.95 0.103 6.66 3.61 11.22
4/16/2021 12:45:00 PM 7.8 46.04 0.103 6.66 3.75 11.19
4/16/2021 1:00:00 PM 7.84 46.112 0.103 6.67 3.64 11.19
4/16/2021 1:15:00 PM 7.86 46.148 0.104 6.67 3.69 11.18
4/16/2021 1:30:00 PM 7.84 46.112 0.104 6.67 3.6 11.18
4/16/2021 1:45:00 PM 7.78 46.004 0.104 6.67 3.77 11.2
4/16/2021 2:00:00 PM 7.71 45.878 0.104 6.67 3.64 11.22
4/16/2021 2:15:00 PM 7.66 45.788 0.104 6.67 3.59 11.24
4/16/2021 2:30:00 PM 7.73 45.914 0.104 6.67 3.6 11.23
4/16/2021 2:45:00 PM 7.77 45.986 0.104 6.67 3.45 11.21
4/16/2021 3:00:00 PM 7.79 46.022 0.104 6.67 3.63 11.2
4/16/2021 3:15:00 PM 7.75 45.95 0.104 6.67 3.66 11.21
4/16/2021 3:30:00 PM 7.72 45.896 0.104 6.66 3.47 11.22
4/16/2021 3:45:00 PM 7.65 45.77 0.103 6.66 3.47 11.23
4/16/2021 4:00:00 PM 7.6 45.68 0.103 6.65 3.54 11.25
4/16/2021 4:15:00 PM 7.55 45.59 0.104 6.65 3.54 11.27
4/16/2021 4:30:00 PM 7.49 45.482 0.104 6.65 3.47 11.28
4/16/2021 4:45:00 PM 7.45 45.41 0.104 6.65 3.53 11.3
4/16/2021 5:00:00 PM 7.41 45.338 0.104 6.64 3.58 11.32
4/17/2021 8:30:00 AM 6.59 43.862 0.102 6.58 3.22 11.6
4/17/2021 8:45:00 AM 6.62 43.916 0.102 6.58 3.17 11.59
4/17/2021 9:00:00 AM 6.64 43.952 0.101 6.58 3.16 11.57
4/17/2021 9:15:00 AM 6.67 44.006 0.101 6.58 3.16 11.58
4/17/2021 9:30:00 AM 6.68 44.024 0.101 6.58 3.16 11.57
4/17/2021 9:45:00 AM 6.74 44.132 0.101 6.58 3.12 11.56
4/17/2021 10:00:00 AM 6.84 44.312 0.101 6.58 3.15 11.53
4/17/2021 10:15:00 AM 6.9 44.42 0.101 6.58 3.22 11.51
4/17/2021 10:30:00 AM 6.94 44.492 0.101 6.58 3.22 11.5
4/17/2021 10:45:00 AM 6.98 44.564 0.101 6.58 3.18 11.48
4/17/2021 11:00:00 AM 7.03 44.654 0.101 6.58 3.23 11.47
4/17/2021 11:15:00 AM 7.1 44.78 0.101 6.58 3.28 11.44
4/17/2021 11:30:00 AM 7.15 44.87 0.101 6.58 3.16 11.43
4/17/2021 11:45:00 AM 7.17 44.906 0.101 6.58 3.14 11.43
4/17/2021 12:00:00 PM 7.2 44.96 0.101 6.58 3.22 11.42
4/17/2021 12:15:00 PM 7.22 44.996 0.101 6.58 3.26 11.41
4/17/2021 12:30:00 PM 7.24 45.032 0.101 6.58 3.19 11.4
4/17/2021 12:45:00 PM 7.29 45.122 0.101 6.58 3.18 11.39
4/17/2021 1:00:00 PM 7.35 45.23 0.101 6.58 3.16 11.37
4/17/2021 1:30:00 PM 7.52 45.536 0.101 6.58 3.2 11.33
4/17/2021 1:45:00 PM 7.6 45.68 0.101 6.58 3.14 11.31
4/17/2021 2:00:00 PM 7.61 45.698 0.101 6.58 3.21 11.29
4/17/2021 2:15:00 PM 7.66 45.788 0.101 6.58 3.21 11.28
4/17/2021 2:30:00 PM 7.73 45.914 0.101 6.58 3.18 11.27
4/17/2021 2:45:00 PM 7.76 45.968 0.101 6.58 3.21 11.24
4/17/2021 3:00:00 PM 7.8 46.04 0.101 6.58 3.15 11.23
4/17/2021 3:15:00 PM 7.81 46.058 0.101 6.58 3.14 11.22
4/17/2021 3:30:00 PM 7.82 46.076 0.101 6.58 3.28 11.22
4/17/2021 3:45:00 PM 7.79 46.022 0.101 6.58 3.14 11.23
4/17/2021 4:00:00 PM 7.76 45.968 0.101 6.58 3.26 11.23
4/17/2021 4:15:00 PM 7.73 45.914 0.101 6.58 3.34 11.24
4/17/2021 4:30:00 PM 7.7 45.86 0.101 6.58 3.74 11.26
4/17/2021 4:45:00 PM 7.7 45.86 0.101 6.58 3.29 11.25
4/17/2021 5:00:00 PM 7.69 45.842 0.101 6.58 3.24 11.26
4/17/2021 5:15:00 PM 7.68 45.824 0.101 6.58 3.23 11.26
4/17/2021 5:30:00 PM 7.66 45.788 0.101 6.58 3.26 11.26
4/17/2021 5:45:00 PM 7.62 45.716 0.101 6.58 3.2 11.26
4/17/2021 6:00:00 PM 7.57 45.626 0.101 6.57 3.23 11.28
4/17/2021 6:15:00 PM 7.52 45.536 0.101 6.57 3.24 11.3
4/17/2021 6:30:00 PM 7.47 45.446 0.101 6.57 3.2 11.31
4/17/2021 6:45:00 PM 7.42 45.356 0.101 6.57 3.28 11.32
4/17/2021 7:00:00 PM 7.37 45.266 0.101 6.57 3.26 11.34
4/18/2021 8:15:00 AM 6.61 43.898 0.1 6.55 3.08 11.61
4/18/2021 8:30:00 AM 6.71 44.078 0.1 6.55 3.06 11.58
4/18/2021 8:45:00 AM 6.84 44.312 0.1 6.55 3.15 11.55
4/18/2021 9:00:00 AM 6.97 44.546 0.1 6.55 3.07 11.51
4/18/2021 9:15:00 AM 7.1 44.78 0.1 6.55 3.11 11.46
4/18/2021 9:30:00 AM 7.26 45.068 0.099 6.55 3.02 11.42
4/18/2021 9:45:00 AM 7.42 45.356 0.099 6.55 3.05 11.37
4/18/2021 10:00:00 AM 7.56 45.608 0.099 6.55 3.08 11.33
4/18/2021 10:15:00 AM 7.68 45.824 0.099 6.56 3.01 11.29
4/18/2021 10:30:00 AM 7.86 46.148 0.099 6.56 3.07 11.24
4/18/2021 10:45:00 AM 7.98 46.364 0.099 6.55 3.02 11.21
4/18/2021 11:00:00 AM 8.15 46.67 0.099 6.56 3.12 11.15
4/18/2021 11:15:00 AM 8.21 46.778 0.099 6.56 3.09 11.12
4/18/2021 11:30:00 AM 8.23 46.814 0.099 6.56 3.12 11.12
4/18/2021 11:45:00 AM 8.32 46.976 0.099 6.56 3.11 11.1
4/18/2021 12:00:00 PM 8.39 47.102 0.099 6.56 3.09 11.08
4/18/2021 12:15:00 PM 8.53 47.354 0.099 6.56 3.02 11.04
4/18/2021 12:30:00 PM 8.64 47.552 0.099 6.56 3.16 11
4/18/2021 12:45:00 PM 8.77 47.786 0.099 6.56 3.2 10.97
4/18/2021 1:00:00 PM 8.83 47.894 0.099 6.56 3.06 10.94
4/18/2021 1:15:00 PM 8.77 47.786 0.099 6.56 3.09 10.96
4/18/2021 1:30:00 PM 8.71 47.678 0.099 6.57 3.15 10.98
4/18/2021 1:45:00 PM 8.64 47.552 0.099 6.56 3.08 11
4/18/2021 2:00:00 PM 8.53 47.354 0.099 6.56 3.15 11.02
4/18/2021 2:15:00 PM 8.43 47.174 0.099 6.56 3.19 11.05
4/18/2021 2:30:00 PM 8.4 47.12 0.099 6.56 3.17 11.06
4/18/2021 2:45:00 PM 8.39 47.102 0.099 6.56 3.15 11.07
4/18/2021 3:00:00 PM 8.37 47.066 0.099 6.56 3.14 11.07
4/18/2021 3:15:00 PM 8.35 47.03 0.099 6.56 3.21 11.07
4/18/2021 3:30:00 PM 8.31 46.958 0.099 6.56 3.29 11.07
4/18/2021 3:45:00 PM 8.3 46.94 0.099 6.56 3.2 11.09
4/18/2021 4:00:00 PM 8.26 46.868 0.099 6.56 3.19 11.1
4/18/2021 4:15:00 PM 8.21 46.778 0.099 6.56 3.16 11.11
4/18/2021 4:30:00 PM 8.2 46.76 0.099 6.56 3.08 11.12
4/18/2021 4:45:00 PM 8.22 46.796 0.098 6.56 3.11 11.12
4/18/2021 5:00:00 PM 8.24 46.832 0.098 6.56 3.14 11.11
4/18/2021 5:15:00 PM 8.24 46.832 0.099 6.56 3.13 11.1
4/18/2021 5:30:00 PM 8.23 46.814 0.099 6.56 3.13 11.12
4/18/2021 5:45:00 PM 8.21 46.778 0.098 6.56 3.33 11.12
4/18/2021 6:00:00 PM 8.18 46.724 0.098 6.55 3.13 11.12
4/18/2021 6:15:00 PM 8.15 46.67 0.098 6.55 3.17 11.13
4/18/2021 6:30:00 PM 8.1 46.58 0.098 6.55 3.26 11.14
4/18/2021 6:45:00 PM 8.05 46.49 0.098 6.55 3.17 11.15
4/18/2021 7:00:00 PM 8 46.4 0.098 6.54 3.14 11.16
4/19/2021 8:30:00 AM 7.18 44.924 0.097 6.53 3.38 11.43
4/19/2021 8:45:00 AM 7.31 45.158 0.097 6.53 3.36 11.39
4/19/2021 9:00:00 AM 7.4 45.32 0.097 6.53 3.35 11.36
4/19/2021 9:15:00 AM 7.5 45.5 0.097 6.54 3.31 11.33
4/19/2021 9:30:00 AM 7.65 45.77 0.097 6.54 3.26 11.29
4/19/2021 9:45:00 AM 7.74 45.932 0.096 6.54 3.34 11.26
4/19/2021 10:00:00 AM 7.93 46.274 0.096 6.54 3.38 11.22
4/19/2021 10:15:00 AM 8.06 46.508 0.096 6.54 3.28 11.18
4/19/2021 10:30:00 AM 8.23 46.814 0.096 6.54 3.33 11.14
4/19/2021 10:45:00 AM 8.41 47.138 0.096 6.54 3.32 11.08
4/19/2021 11:00:00 AM 8.51 47.318 0.096 6.54 3.44 11.03
4/20/2021 7:45:00 AM 7.42 45.356 0.094 6.52 3.69 11.37
4/20/2021 8:00:00 AM 7.46 45.428 0.094 6.53 3.69 11.37
4/20/2021 8:15:00 AM 7.51 45.518 0.094 6.53 3.74 11.36
4/20/2021 8:30:00 AM 7.56 45.608 0.094 6.53 3.66 11.34
4/20/2021 8:45:00 AM 7.62 45.716 0.094 6.52 3.67 11.33
4/20/2021 9:00:00 AM 7.68 45.824 0.094 6.53 3.66 11.31
4/21/2021 1:00:00 PM 7 44.6 0.093 6.52 3.31 11.46
4/21/2021 1:15:00 PM 6.98 44.564 0.093 6.52 3.21 11.45
4/21/2021 1:30:00 PM 6.92 44.456 0.093 6.52 3.3 11.48
4/21/2021 1:45:00 PM 6.86 44.348 0.093 6.52 3.19 11.5
4/21/2021 2:00:00 PM 6.79 44.222 0.093 6.51 3.19 11.52
4/21/2021 2:15:00 PM 6.75 44.15 0.093 6.51 3.22 11.53
4/21/2021 2:30:00 PM 6.72 44.096 0.093 6.51 3.23 11.55
4/21/2021 2:45:00 PM 6.68 44.024 0.093 6.51 3.44 11.56
4/21/2021 3:00:00 PM 6.62 43.916 0.093 6.51 3.29 11.56
4/21/2021 3:15:00 PM 6.57 43.826 0.093 6.51 3.32 11.57
4/21/2021 3:30:00 PM 6.55 43.79 0.079 6.51 3.24 11.59
4/21/2021 3:45:00 PM 6.55 43.79 0.093 6.51 3.26 11.59
4/21/2021 4:00:00 PM 6.52 43.736 0.093 6.51 3.29 11.61
4/21/2021 4:15:00 PM 6.51 43.718 0.093 6.51 3.24 11.6
4/21/2021 4:30:00 PM 6.47 43.646 0.093 6.51 3.24 11.61
4/21/2021 4:45:00 PM 6.44 43.592 0.093 6.5 3.29 11.62
4/21/2021 5:00:00 PM 6.41 43.538 0.093 6.5 3.54 11.63
4/21/2021 5:15:00 PM 6.37 43.466 0.093 6.5 3.51 11.64
4/21/2021 5:30:00 PM 6.31 43.358 0.093 6.5 3.48 11.66
4/21/2021 5:45:00 PM 6.26 43.268 0.093 6.5 3.57 11.67
4/21/2021 6:00:00 PM 6.21 43.178 0.093 6.5 3.47 11.68
4/21/2021 6:15:00 PM 6.14 43.052 0.093 6.5 3.53 11.7
4/21/2021 6:30:00 PM 6.06 42.908 0.093 6.49 3.48 11.73
4/21/2021 6:45:00 PM 6.01 42.818 0.093 6.49 3.52 11.75
4/21/2021 7:00:00 PM 5.93 42.674 0.093 6.49 3.52 11.77
4/22/2021 8:45:00 AM 4.93 40.874 0.093 6.47 3.51 12.14
4/22/2021 9:00:00 AM 4.98 40.964 0.093 6.47 3.47 12.13
4/22/2021 9:15:00 AM 5.02 41.036 0.092 6.48 3.57 12.12
4/22/2021 9:30:00 AM 5.07 41.126 0.093 6.47 3.51 12.1
4/22/2021 9:45:00 AM 5.11 41.198 0.093 6.47 3.49 12.09
4/22/2021 10:00:00 AM 5.15 41.27 0.093 6.47 3.52 12.07
4/22/2021 10:15:00 AM 5.19 41.342 0.093 6.48 3.48 12.05
4/22/2021 10:30:00 AM 5.22 41.396 0.093 6.47 3.54 12.05
4/22/2021 10:45:00 AM 5.36 41.648 0.093 6.48 3.53 12.01
4/22/2021 11:00:00 AM 5.36 41.648 0.093 6.48 3.51 12.01
4/22/2021 11:15:00 AM 5.55 41.99 0.093 6.48 3.46 11.95
4/22/2021 11:30:00 AM 5.58 42.044 0.092 6.48 3.52 11.93
4/22/2021 11:45:00 AM 5.64 42.152 0.092 6.48 3.5 11.92
4/22/2021 12:00:00 PM 5.74 42.332 0.093 6.48 3.54 11.88
4/22/2021 12:15:00 PM 5.89 42.602 0.093 6.48 3.51 11.84
4/22/2021 12:30:00 PM 6.01 42.818 0.092 6.48 3.54 11.8
4/22/2021 12:45:00 PM 6.04 42.872 0.092 6.48 3.53 11.79
4/22/2021 1:00:00 PM 6.14 43.052 0.092 6.48 3.54 11.76
4/22/2021 1:15:00 PM 6.1 42.98 0.092 6.49 3.52 11.76
4/22/2021 1:30:00 PM 6.08 42.944 0.092 6.48 3.43 11.77
4/22/2021 1:45:00 PM 6.04 42.872 0.092 6.48 3.55 11.78
4/22/2021 2:00:00 PM 6.03 42.854 0.092 6.48 3.53 11.79
4/22/2021 2:15:00 PM 5.99 42.782 0.092 6.48 3.53 11.79
4/22/2021 2:30:00 PM 5.93 42.674 0.092 6.48 3.58 11.81
4/22/2021 2:45:00 PM 5.92 42.656 0.092 6.48 3.53 11.82
4/22/2021 3:00:00 PM 5.91 42.638 0.092 6.48 3.5 11.82
4/22/2021 3:30:00 PM 5.95 42.71 0.092 6.48 3.5 11.81
4/22/2021 3:45:00 PM 5.95 42.71 0.092 6.48 3.52 11.81
4/22/2021 4:00:00 PM 5.96 42.728 0.092 6.48 3.52 11.8
4/22/2021 4:15:00 PM 5.95 42.71 0.092 6.48 3.49 11.8
4/22/2021 4:30:00 PM 5.93 42.674 0.092 6.47 3.58 11.81
4/22/2021 4:45:00 PM 5.89 42.602 0.092 6.47 3.57 11.81
4/22/2021 5:00:00 PM 5.85 42.53 0.092 6.47 3.53 11.83
4/22/2021 5:15:00 PM 5.8 42.44 0.092 6.47 3.52 11.85
4/22/2021 5:30:00 PM 5.73 42.314 0.092 6.47 3.66 11.86
4/22/2021 5:45:00 PM 5.66 42.188 0.092 6.47 3.62 11.88
4/22/2021 6:00:00 PM 5.62 42.116 0.092 6.47 3.59 11.9
4/22/2021 6:15:00 PM 5.58 42.044 0.092 6.47 3.54 11.91
4/22/2021 6:30:00 PM 5.54 41.972 0.092 6.47 3.56 11.92
4/22/2021 6:45:00 PM 5.5 41.9 0.092 6.47 3.57 11.93
4/22/2021 7:00:00 PM 5.46 41.828 0.093 6.47 3.56 11.94

These are provisional data and have not been subject to a quality assurance process, but rather are the raw data reported by the instrument.
H: value is above sensor operating range
L: value is below sensor operating range
Offline: station is not reporting data
NC: parameter is not collected at site

Data Availability & Limitations

Uncertainty and potential for error can be associated with environmental monitoring data. Provisional data have not been subject to a quality assurance process, but rather are the raw data reported by the instrument. Data users are cautioned to consider carefully the provisional nature of the information before using it for decisions that concern personal or public safety or the conduct of business that involves substantial monetary or operational consequences.

Approved data are currently available by request by emailing: srbc@srbc.net. Approved data have been subject to a quality assurance process to correct for equipment or fouling drift. Data recorded during equipment malfunctions have been removed.

View Historical Stations that have been discontinued.